createdAt,value
2022-12-01T00:01:11.047Z,99622.13
2022-12-01T00:03:38.974Z,99621.66
2022-12-01T00:06:18.053Z,99620.09
2022-12-01T00:09:06.915Z,99631.75
2022-12-01T00:11:35.170Z,99628.81
2022-12-01T00:14:02.302Z,99629.13
2022-12-01T00:16:29.686Z,99624.88
2022-12-01T00:18:57.029Z,99626.53
2022-12-01T00:21:29.225Z,99625.94
2022-12-01T00:23:58.007Z,99634.19
2022-12-01T00:26:25.948Z,99628.53
2022-12-01T00:28:58.021Z,99626.22
2022-12-01T00:31:25.896Z,99633.84
2022-12-01T00:33:53.195Z,99629.00
2022-12-01T00:36:20.338Z,99636.91
2022-12-01T00:38:47.506Z,99636.63
2022-12-01T00:41:14.538Z,99630.00
2022-12-01T00:43:41.486Z,99629.53
2022-12-01T00:46:08.654Z,99623.31
2022-12-01T00:48:35.726Z,99627.78
2022-12-01T00:51:03.333Z,99631.78
2022-12-01T00:53:30.648Z,99637.19
2022-12-01T00:55:57.728Z,99638.53
2022-12-01T00:58:25.101Z,99636.72
2022-12-01T01:01:00.015Z,99641.44
2022-12-01T01:03:27.644Z,99637.09
2022-12-01T01:05:54.727Z,99629.47
2022-12-01T01:08:22.128Z,99642.47
2022-12-01T01:10:49.596Z,99637.81
2022-12-01T01:13:16.702Z,99629.31
2022-12-01T01:15:43.677Z,99628.72
2022-12-01T01:18:12.142Z,99628.06
2022-12-01T01:20:39.091Z,99635.22
2022-12-01T01:23:06.080Z,99634.75
2022-12-01T01:25:33.462Z,99639.69
2022-12-01T01:28:00.437Z,99628.09
2022-12-01T01:30:27.707Z,99629.97
2022-12-01T01:32:54.961Z,99633.19
2022-12-01T01:35:21.781Z,99626.59
2022-12-01T01:37:50.346Z,99624.22
2022-12-01T01:40:17.615Z,99627.03
2022-12-01T01:42:44.754Z,99617.94
2022-12-01T01:45:32.062Z,99621.16
2022-12-01T01:48:06.950Z,99615.53
2022-12-01T01:50:34.181Z,99608.47
2022-12-01T01:53:10.844Z,99612.34
2022-12-01T01:55:38.790Z,99602.56
2022-12-01T01:58:09.622Z,99603.34
2022-12-01T02:00:39.594Z,99613.03
2022-12-01T02:03:08.428Z,99608.88
2022-12-01T02:05:37.331Z,99615.84
2022-12-01T02:08:05.098Z,99614.59
2022-12-01T02:11:12.299Z,99607.31
2022-12-01T02:13:57.532Z,99612.97
2022-12-01T02:16:49.376Z,99618.34
2022-12-01T02:19:37.362Z,99613.94
2022-12-01T02:22:32.597Z,99605.75
2022-12-01T02:25:37.712Z,99610.28
2022-12-01T02:28:23.345Z,99612.19
2022-12-01T02:30:56.736Z,99613.50
2022-12-01T02:33:38.611Z,99609.78
2022-12-01T02:36:37.299Z,99609.28
2022-12-01T02:39:19.119Z,99606.84
2022-12-01T02:42:36.006Z,99604.97
2022-12-01T02:45:10.915Z,99603.84
2022-12-01T02:47:40.960Z,99594.97
2022-12-01T02:50:10.340Z,99606.50
2022-12-01T02:52:40.513Z,99608.31
2022-12-01T02:55:07.684Z,99599.66
2022-12-01T02:57:34.597Z,99607.53
2022-12-01T03:00:02.388Z,99602.00
2022-12-01T03:02:52.157Z,99601.28
2022-12-01T03:05:31.790Z,99591.84
2022-12-01T03:08:37.322Z,99600.69
2022-12-01T03:11:04.399Z,99603.06
2022-12-01T03:14:04.735Z,99602.78
2022-12-01T03:16:46.074Z,99605.94
2022-12-01T03:19:35.893Z,99610.88
2022-12-01T03:22:17.414Z,99609.41
2022-12-01T03:24:48.271Z,99606.75
2022-12-01T03:27:19.958Z,99602.53
2022-12-01T03:29:51.985Z,99605.25
2022-12-01T03:32:22.161Z,99602.53
2022-12-01T03:35:22.988Z,99607.66
2022-12-01T03:37:56.580Z,99602.19
2022-12-01T03:40:29.722Z,99599.94
2022-12-01T03:43:03.695Z,99601.91
2022-12-01T03:46:10.878Z,99599.38
2022-12-01T03:48:39.772Z,99599.75
2022-12-01T03:51:25.130Z,99595.75
2022-12-01T03:53:55.640Z,99612.03
2022-12-01T03:56:28.470Z,99611.91
2022-12-01T03:58:59.371Z,99616.59
2022-12-01T04:01:32.883Z,99611.78
2022-12-01T04:04:13.030Z,99627.94
2022-12-01T04:06:45.055Z,99606.19
2022-12-01T04:09:12.544Z,99620.91
2022-12-01T04:11:58.548Z,99615.22
2022-12-01T04:14:25.374Z,99614.06
2022-12-01T04:16:52.384Z,99617.41
2022-12-01T04:19:19.401Z,99608.44
2022-12-01T04:21:46.328Z,99605.78
2022-12-01T04:24:14.341Z,99617.28
2022-12-01T04:26:43.110Z,99609.16
2022-12-01T04:29:12.229Z,99618.09
2022-12-01T04:31:40.151Z,99610.78
2022-12-01T04:34:07.482Z,99601.66
2022-12-01T04:36:35.670Z,99618.41
2022-12-01T04:39:02.970Z,99610.38
2022-12-01T04:41:30.031Z,99614.22
2022-12-01T04:43:57.093Z,99611.13
2022-12-01T04:46:25.174Z,99611.16
2022-12-01T04:48:52.674Z,99611.00
2022-12-01T04:51:20.271Z,99611.03
2022-12-01T04:53:47.220Z,99612.97
2022-12-01T04:56:14.098Z,99623.66
2022-12-01T04:58:41.310Z,99616.72
2022-12-01T05:01:11.380Z,99625.09
2022-12-01T05:03:40.083Z,99605.78
2022-12-01T05:06:24.116Z,99609.00
2022-12-01T05:08:52.031Z,99621.84
2022-12-01T05:11:19.234Z,99623.16
2022-12-01T05:13:48.075Z,99626.91
2022-12-01T05:16:18.498Z,99622.50
2022-12-01T05:19:13.919Z,99620.72
2022-12-01T05:21:42.344Z,99617.16
2022-12-01T05:24:10.521Z,99617.34
2022-12-01T05:26:37.763Z,99626.63
2022-12-01T05:29:05.231Z,99619.22
2022-12-01T05:31:32.598Z,99628.94
2022-12-01T05:33:59.621Z,99627.63
2022-12-01T05:36:26.913Z,99636.69
2022-12-01T05:38:54.757Z,99626.38
2022-12-01T05:41:21.823Z,99623.66
2022-12-01T05:43:49.697Z,99622.91
2022-12-01T05:46:16.610Z,99625.81
2022-12-01T05:48:43.665Z,99617.00
2022-12-01T05:51:12.547Z,99617.22
2022-12-01T05:53:39.602Z,99627.78
2022-12-01T05:56:07.871Z,99623.03
2022-12-01T05:58:35.734Z,99625.50
2022-12-01T06:01:02.890Z,99624.53
2022-12-01T06:03:29.754Z,99622.56
2022-12-01T06:05:56.761Z,99634.75
2022-12-01T06:08:23.731Z,99629.78
2022-12-01T06:10:50.760Z,99641.50
2022-12-01T06:13:18.405Z,99627.38
2022-12-01T06:15:45.371Z,99635.16
2022-12-01T06:18:12.382Z,99642.97
2022-12-01T06:20:39.771Z,99647.66
2022-12-01T06:23:06.605Z,99653.03
2022-12-01T06:25:33.626Z,99650.66
2022-12-01T06:28:00.595Z,99643.91
2022-12-01T06:30:30.984Z,99650.06
2022-12-01T06:32:58.126Z,99640.78
2022-12-01T06:35:25.284Z,99649.97
2022-12-01T06:37:54.941Z,99639.84
2022-12-01T06:40:22.833Z,99645.19
2022-12-01T06:42:49.811Z,99650.72
2022-12-01T06:45:16.935Z,99651.13
2022-12-01T06:47:43.911Z,99648.41
2022-12-01T06:50:12.350Z,99653.88
2022-12-01T06:52:39.163Z,99657.63
2022-12-01T06:55:06.873Z,99662.75
2022-12-01T06:57:34.172Z,99661.00
2022-12-01T07:00:01.620Z,99663.50
2022-12-01T07:02:28.963Z,99667.47
2022-12-01T07:04:56.076Z,99668.47
2022-12-01T07:07:23.500Z,99663.94
2022-12-01T07:09:52.068Z,99666.41
2022-12-01T07:12:19.090Z,99670.13
2022-12-01T07:14:46.467Z,99642.84
2022-12-01T07:17:16.767Z,99649.84
2022-12-01T07:20:02.421Z,99663.56
2022-12-01T07:22:32.648Z,99658.81
2022-12-01T07:24:59.915Z,99660.03
2022-12-01T07:27:30.336Z,99659.06
2022-12-01T07:29:57.505Z,99659.88
2022-12-01T07:32:24.667Z,99663.66
2022-12-01T07:34:51.751Z,99658.78
2022-12-01T07:37:18.863Z,99664.25
2022-12-01T07:39:45.816Z,99653.13
2022-12-01T07:42:12.847Z,99663.75
2022-12-01T07:44:40.010Z,99654.78
2022-12-01T07:47:07.133Z,99653.78
2022-12-01T07:49:34.910Z,99664.06
2022-12-01T07:52:02.024Z,99657.25
2022-12-01T07:54:28.953Z,99654.84
2022-12-01T07:56:55.939Z,99664.53
2022-12-01T07:59:23.019Z,99657.31
2022-12-01T08:01:50.061Z,99665.50
2022-12-01T08:04:19.526Z,99667.50
2022-12-01T08:06:46.639Z,99649.47
2022-12-01T08:09:13.782Z,99650.63
2022-12-01T08:11:40.909Z,99656.66
2022-12-01T08:14:07.824Z,99657.16
2022-12-01T08:16:34.736Z,99658.66
2022-12-01T08:19:02.120Z,99655.28
2022-12-01T08:21:29.296Z,99667.09
2022-12-01T08:23:58.309Z,99667.25
2022-12-01T08:26:27.375Z,99659.16
2022-12-01T08:28:54.408Z,99658.59
2022-12-01T08:31:23.097Z,99664.19
2022-12-01T08:33:51.088Z,99662.78
2022-12-01T08:36:19.672Z,99665.81
2022-12-01T08:38:48.442Z,99669.94
2022-12-01T08:41:16.402Z,99657.06
2022-12-01T08:44:01.466Z,99659.22
2022-12-01T08:46:33.261Z,99651.56
2022-12-01T08:49:01.141Z,99661.19
2022-12-01T08:51:28.861Z,99659.31
2022-12-01T08:53:57.792Z,99671.66
2022-12-01T08:56:45.304Z,99651.16
2022-12-01T08:59:14.421Z,99664.63
2022-12-01T09:01:54.063Z,99660.31
2022-12-01T09:04:24.247Z,99661.00
2022-12-01T09:06:53.118Z,99654.69
2022-12-01T09:09:24.255Z,99647.75
2022-12-01T09:11:55.047Z,99651.69
2022-12-01T09:14:23.209Z,99655.50
2022-12-01T09:16:51.173Z,99654.22
2022-12-01T09:19:24.644Z,99648.66
2022-12-01T09:21:52.782Z,99657.56
2022-12-01T09:24:19.914Z,99648.09
2022-12-01T09:26:47.067Z,99655.69
2022-12-01T09:29:16.162Z,99650.31
2022-12-01T09:31:43.539Z,99641.63
2022-12-01T09:34:18.974Z,99652.69
2022-12-01T09:36:47.312Z,99654.19
2022-12-01T09:39:17.511Z,99650.13
2022-12-01T09:42:11.069Z,99645.59
2022-12-01T09:44:45.300Z,99653.16
2022-12-01T09:47:25.181Z,99648.59
2022-12-01T09:50:06.541Z,99641.22
2022-12-01T09:52:52.270Z,99644.75
2022-12-01T09:55:23.715Z,99649.44
2022-12-01T09:57:56.094Z,99631.50
2022-12-01T10:00:30.416Z,99645.31
2022-12-01T10:03:01.897Z,99643.63
2022-12-01T10:05:56.651Z,99648.59
2022-12-01T10:08:34.287Z,99636.97
2022-12-01T10:11:16.766Z,99621.22
2022-12-01T10:13:44.286Z,99639.47
2022-12-01T10:16:20.515Z,99637.91
2022-12-01T10:18:53.207Z,99637.34
2022-12-01T10:21:49.587Z,99647.19
2022-12-01T10:24:34.840Z,99643.44
2022-12-01T10:27:02.003Z,99649.31
2022-12-01T10:29:46.395Z,99632.31
2022-12-01T10:32:26.642Z,99632.81
2022-12-01T10:34:54.716Z,99635.47
2022-12-01T10:37:29.195Z,99635.03
2022-12-01T10:39:58.430Z,99639.72
2022-12-01T10:42:56.343Z,99623.13
2022-12-01T10:45:27.336Z,99623.03
2022-12-01T10:48:15.722Z,99615.97
2022-12-01T10:50:46.723Z,99633.00
2022-12-01T10:53:27.904Z,99617.97
2022-12-01T10:56:15.913Z,99631.44
2022-12-01T10:58:48.443Z,99623.88
2022-12-01T11:01:24.642Z,99625.03
2022-12-01T11:03:55.844Z,99620.75
2022-12-01T11:06:30.101Z,99623.03
2022-12-01T11:09:00.996Z,99621.97
2022-12-01T11:11:40.350Z,99622.59
2022-12-01T11:14:22.927Z,99618.66
2022-12-01T11:16:52.689Z,99617.78
2022-12-01T11:19:32.829Z,99625.53
2022-12-01T11:22:02.189Z,99605.56
2022-12-01T11:25:04.109Z,99622.22
2022-12-01T11:27:35.423Z,99618.81
2022-12-01T11:30:20.367Z,99624.34
2022-12-01T11:32:54.347Z,99625.84
2022-12-01T11:35:23.999Z,99627.69
2022-12-01T11:38:27.636Z,99622.88
2022-12-01T11:40:49.716Z,99618.91
2022-12-01T11:43:28.704Z,99633.50
2022-12-01T11:45:59.130Z,99620.00
2022-12-01T11:48:31.269Z,99615.69
2022-12-01T11:51:09.991Z,99619.47
2022-12-01T11:53:42.106Z,99618.28
2022-12-01T11:56:16.498Z,99619.97
2022-12-01T11:58:48.484Z,99626.16
2022-12-01T12:01:27.389Z,99616.22
2022-12-01T12:04:15.391Z,99621.03
2022-12-01T12:06:56.322Z,99617.94
2022-12-01T12:09:46.182Z,99626.22
2022-12-01T12:12:28.883Z,99625.00
2022-12-01T12:15:18.406Z,99625.94
2022-12-01T12:17:51.264Z,99622.31
2022-12-01T12:20:45.457Z,99627.97
2022-12-01T12:23:53.298Z,99631.97
2022-12-01T12:26:31.240Z,99631.53
2022-12-01T12:29:19.707Z,99634.47
2022-12-01T12:31:52.591Z,99637.47
2022-12-01T12:34:53.769Z,99628.31
2022-12-01T12:37:43.426Z,99626.63
2022-12-01T12:40:36.379Z,99638.59
2022-12-01T12:43:23.537Z,99633.38
2022-12-01T12:46:02.160Z,99638.22
2022-12-01T12:48:29.292Z,99638.38
2022-12-01T12:51:19.322Z,99627.16
2022-12-01T12:53:55.179Z,99621.94
2022-12-01T12:56:26.706Z,99629.56
2022-12-01T12:58:58.601Z,99633.50
2022-12-01T13:01:38.657Z,99626.97
2022-12-01T13:04:12.635Z,99624.56
2022-12-01T13:06:50.456Z,99633.81
2022-12-01T13:09:38.066Z,99625.97
2022-12-01T13:12:16.110Z,99632.66
2022-12-01T13:14:49.385Z,99620.78
2022-12-01T13:17:30.345Z,99629.19
2022-12-01T13:19:57.369Z,99628.34
2022-12-01T13:25:00.017Z,99631.22
2022-12-01T13:27:33.314Z,99627.56
2022-12-01T13:30:01.565Z,99633.31
2022-12-01T13:32:45.042Z,99639.34
2022-12-01T13:35:24.820Z,99642.56
2022-12-01T13:37:54.999Z,99641.38
2022-12-01T13:40:30.213Z,99632.97
2022-12-01T13:43:08.854Z,99644.94
2022-12-01T13:45:40.558Z,99649.44
2022-12-01T13:48:47.277Z,99636.03
2022-12-01T13:51:15.256Z,99647.50
2022-12-01T13:54:25.865Z,99631.53
2022-12-01T13:57:04.346Z,99648.50
2022-12-01T14:00:03.186Z,99647.38
2022-12-01T14:02:34.949Z,99653.75
2022-12-01T14:05:24.125Z,99650.88
2022-12-01T14:07:55.114Z,99660.94
2022-12-01T14:10:33.000Z,99654.25
2022-12-01T14:13:04.385Z,99652.97
2022-12-01T14:15:43.007Z,99646.50
2022-12-01T14:18:36.202Z,99647.75
2022-12-01T14:21:07.466Z,99660.09
2022-12-01T14:23:38.651Z,99657.94
2022-12-01T14:26:15.158Z,99667.16
2022-12-01T14:29:20.625Z,99659.66
2022-12-01T14:31:51.182Z,99652.88
2022-12-01T14:34:37.204Z,99659.53
2022-12-01T14:37:19.115Z,99640.03
2022-12-01T14:40:06.521Z,99651.34
2022-12-01T14:43:02.430Z,99660.22
2022-12-01T14:45:40.510Z,99653.19
2022-12-01T14:48:16.096Z,99665.00
2022-12-01T14:50:51.990Z,99660.94
2022-12-01T14:53:32.976Z,99652.28
2022-12-01T14:56:09.864Z,99659.53
2022-12-01T14:58:37.178Z,99664.34
2022-12-01T15:01:16.322Z,99662.44
2022-12-01T15:03:54.395Z,99656.72
2022-12-01T15:06:33.914Z,99660.72
2022-12-01T15:09:32.997Z,99655.53
2022-12-01T15:12:01.230Z,99658.69
2022-12-01T15:14:33.454Z,99651.88
2022-12-01T15:17:05.744Z,99650.88
2022-12-01T15:19:36.823Z,99657.69
2022-12-01T15:22:10.017Z,99651.53
2022-12-01T15:24:39.919Z,99662.59
2022-12-01T15:27:24.815Z,99653.75
2022-12-01T15:29:52.748Z,99659.22
2022-12-01T15:32:25.031Z,99654.78
2022-12-01T15:34:56.755Z,99662.59
2022-12-01T15:37:27.190Z,99655.03
2022-12-01T15:40:25.595Z,99652.41
2022-12-01T15:43:05.546Z,99656.91
2022-12-01T15:45:48.115Z,99665.25
2022-12-01T15:48:17.753Z,99663.56
2022-12-01T15:51:01.676Z,99661.16
2022-12-01T15:53:35.942Z,99664.78
2022-12-01T15:56:08.829Z,99666.13
2022-12-01T15:58:47.449Z,99665.63
2022-12-01T16:01:21.218Z,99662.53
2022-12-01T16:04:05.793Z,99664.84
2022-12-01T16:06:39.127Z,99665.66
2022-12-01T16:09:20.562Z,99658.75
2022-12-01T16:12:11.107Z,99674.50
2022-12-01T16:15:00.844Z,99666.28
2022-12-01T16:17:48.107Z,99678.56
2022-12-01T16:20:24.866Z,99676.00
2022-12-01T16:22:57.358Z,99683.63
2022-12-01T16:25:32.501Z,99682.94
2022-12-01T16:28:00.488Z,99686.28
2022-12-01T16:30:32.991Z,99673.72
2022-12-01T16:33:07.313Z,99689.34
2022-12-01T16:35:35.318Z,99684.06
2022-12-01T16:38:13.072Z,99677.88
2022-12-01T16:40:43.960Z,99674.84
2022-12-01T16:43:16.635Z,99689.66
2022-12-01T16:45:46.262Z,99687.44
2022-12-01T16:48:13.349Z,99690.41
2022-12-01T16:50:41.055Z,99694.38
2022-12-01T16:53:08.069Z,99696.03
2022-12-01T16:55:51.539Z,99701.13
2022-12-01T16:58:19.246Z,99688.72
2022-12-01T17:00:53.139Z,99696.00
2022-12-01T17:03:24.290Z,99705.31
2022-12-01T17:05:59.740Z,99698.56
2022-12-01T17:08:27.240Z,99703.38
2022-12-01T17:10:54.614Z,99710.13
2022-12-01T17:13:25.917Z,99710.13
2022-12-01T17:15:55.293Z,99709.13
2022-12-01T17:18:23.982Z,99699.34
2022-12-01T17:21:02.131Z,99716.97
2022-12-01T17:23:29.868Z,99718.59
2022-12-01T17:25:56.983Z,99717.81
2022-12-01T17:28:24.184Z,99726.22
2022-12-01T17:30:51.374Z,99724.38
2022-12-01T17:33:18.468Z,99729.41
2022-12-01T17:35:45.750Z,99712.00
2022-12-01T17:38:12.807Z,99722.78
2022-12-01T17:40:39.944Z,99730.75
2022-12-01T17:43:08.529Z,99727.47
2022-12-01T17:45:42.146Z,99726.09
2022-12-01T17:48:09.309Z,99721.91
2022-12-01T17:50:38.374Z,99739.91
2022-12-01T17:53:05.501Z,99733.00
2022-12-01T17:55:32.790Z,99732.19
2022-12-01T17:58:00.025Z,99727.50
2022-12-01T18:00:27.127Z,99724.91
2022-12-01T18:02:57.190Z,99730.50
2022-12-01T18:05:25.275Z,99732.38
2022-12-01T18:07:53.010Z,99728.44
2022-12-01T18:10:20.876Z,99729.88
2022-12-01T18:12:48.079Z,99726.16
2022-12-01T18:15:15.044Z,99724.94
2022-12-01T18:17:42.105Z,99727.03
2022-12-01T18:20:09.629Z,99729.81
2022-12-01T18:22:36.713Z,99729.88
2022-12-01T18:25:04.101Z,99723.75
2022-12-01T18:27:31.552Z,99731.38
2022-12-01T18:29:58.742Z,99730.97
2022-12-01T18:32:26.086Z,99727.84
2022-12-01T18:34:53.515Z,99733.00
2022-12-01T18:37:20.943Z,99730.84
2022-12-01T18:39:48.511Z,99733.94
2022-12-01T18:42:17.844Z,99733.44
2022-12-01T18:44:45.643Z,99738.25
2022-12-01T18:47:13.110Z,99736.72
2022-12-01T18:49:40.055Z,99737.66
2022-12-01T18:52:07.135Z,99730.16
2022-12-01T18:54:36.072Z,99739.63
2022-12-01T18:57:03.452Z,99734.63
2022-12-01T18:59:30.904Z,99729.34
2022-12-01T19:01:58.117Z,99735.69
2022-12-01T19:04:25.509Z,99729.81
2022-12-01T19:06:52.861Z,99733.19
2022-12-01T19:09:20.203Z,99739.75
2022-12-01T19:11:48.713Z,99739.16
2022-12-01T19:14:19.822Z,99744.41
2022-12-01T19:16:47.217Z,99729.88
2022-12-01T19:19:14.916Z,99742.72
2022-12-01T19:21:45.766Z,99742.13
2022-12-01T19:24:12.806Z,99746.78
2022-12-01T19:26:40.058Z,99734.00
2022-12-01T19:29:07.097Z,99743.22
2022-12-01T19:31:34.526Z,99750.25
2022-12-01T19:34:01.456Z,99747.69
2022-12-01T19:36:29.253Z,99748.19
2022-12-01T19:39:00.179Z,99747.34
2022-12-01T19:41:28.030Z,99744.56
2022-12-01T19:43:55.823Z,99754.50
2022-12-01T19:46:24.821Z,99751.31
2022-12-01T19:49:02.664Z,99746.44
2022-12-01T19:51:36.741Z,99749.31
2022-12-01T19:54:05.309Z,99743.06
2022-12-01T19:56:32.874Z,99753.50
2022-12-01T19:59:00.512Z,99742.59
2022-12-01T20:01:28.494Z,99744.88
2022-12-01T20:03:55.607Z,99738.25
2022-12-01T20:06:30.078Z,99746.78
2022-12-01T20:09:01.675Z,99746.19
2022-12-01T20:11:35.565Z,99748.03
2022-12-01T20:14:05.219Z,99740.88
2022-12-01T20:16:32.964Z,99747.13
2022-12-01T20:19:02.595Z,99734.75
2022-12-01T20:21:36.782Z,99732.72
2022-12-01T20:24:07.874Z,99736.41
2022-12-01T20:26:39.243Z,99732.63
2022-12-01T20:29:27.965Z,99737.09
2022-12-01T20:31:57.225Z,99737.84
2022-12-01T20:34:27.921Z,99739.78
2022-12-01T20:36:56.676Z,99741.16
2022-12-01T20:39:24.405Z,99739.41
2022-12-01T20:41:51.946Z,99743.25
2022-12-01T20:44:19.783Z,99752.69
2022-12-01T20:46:48.015Z,99747.25
2022-12-01T20:49:16.570Z,99749.81
2022-12-01T20:51:43.495Z,99754.00
2022-12-01T20:54:27.925Z,99753.88
2022-12-01T20:56:55.887Z,99756.81
2022-12-01T20:59:23.051Z,99757.97
2022-12-01T21:01:50.500Z,99767.56
2022-12-01T21:04:18.149Z,99763.53
2022-12-01T21:06:45.309Z,99762.50
2022-12-01T21:09:13.472Z,99764.16
2022-12-01T21:12:08.527Z,99759.97
2022-12-01T21:15:02.780Z,99764.81
2022-12-01T21:17:32.781Z,99762.59
2022-12-01T21:20:26.440Z,99759.53
2022-12-01T21:22:55.129Z,99759.97
2022-12-01T21:25:28.154Z,99763.91
2022-12-01T21:28:00.913Z,99758.09
2022-12-01T21:30:29.935Z,99761.63
2022-12-01T21:33:16.943Z,99760.31
2022-12-01T21:35:44.169Z,99768.00
2022-12-01T21:38:17.782Z,99759.34
2022-12-01T21:40:49.753Z,99773.19
2022-12-01T21:43:26.878Z,99772.47
2022-12-01T21:46:00.629Z,99770.56
2022-12-01T21:48:35.418Z,99773.41
2022-12-01T21:51:16.730Z,99765.91
2022-12-01T21:53:43.691Z,99771.66
2022-12-01T21:56:25.263Z,99760.09
2022-12-01T21:58:55.082Z,99768.94
2022-12-01T22:01:32.526Z,99766.97
2022-12-01T22:04:02.590Z,99760.44
2022-12-01T22:06:39.858Z,99756.47
2022-12-01T22:09:31.727Z,99762.28
2022-12-01T22:12:31.531Z,99764.63
2022-12-01T22:15:04.071Z,99756.66
2022-12-01T22:17:31.181Z,99764.75
2022-12-01T22:20:02.010Z,99763.53
2022-12-01T22:22:31.665Z,99772.31
2022-12-01T22:25:27.696Z,99766.63
2022-12-01T22:27:54.949Z,99772.13
2022-12-01T22:33:35.549Z,99770.91
2022-12-01T22:36:02.529Z,99769.31
2022-12-01T22:38:38.969Z,99767.44
2022-12-01T22:41:13.451Z,99765.00
2022-12-01T22:44:04.768Z,99765.81
2022-12-01T22:46:37.771Z,99755.75
2022-12-01T22:49:10.858Z,99763.31
2022-12-01T22:51:49.147Z,99762.06
2022-12-01T22:54:30.144Z,99766.13
2022-12-01T22:57:03.441Z,99756.19
2022-12-01T22:59:38.719Z,99757.06
2022-12-01T23:02:27.334Z,99758.22
2022-12-01T23:05:03.330Z,99747.00
2022-12-01T23:07:33.071Z,99750.47
2022-12-01T23:10:26.109Z,99755.75
2022-12-01T23:12:55.061Z,99754.50
2022-12-01T23:15:41.415Z,99748.19
2022-12-01T23:18:30.522Z,99753.53
2022-12-01T23:20:59.973Z,99748.13
2022-12-01T23:23:28.091Z,99746.81
2022-12-01T23:25:55.537Z,99745.47
2022-12-01T23:28:22.784Z,99752.38
2022-12-01T23:30:52.934Z,99746.50
2022-12-01T23:33:28.516Z,99748.06
2022-12-01T23:36:20.119Z,99746.06
2022-12-01T23:38:49.847Z,99757.25
2022-12-01T23:41:39.190Z,99755.66
2022-12-01T23:44:12.195Z,99753.19
2022-12-01T23:46:39.454Z,99753.09
2022-12-01T23:49:13.403Z,99748.66
2022-12-01T23:51:50.153Z,99752.25
2022-12-01T23:54:21.770Z,99741.38
2022-12-01T23:56:52.747Z,99741.38
2022-12-01T23:59:21.076Z,99742.31
